createdAt,value
2019-03-12T00:00:38.398Z,7.30
2019-03-12T00:03:45.183Z,7.83
2019-03-12T00:06:51.941Z,4.37
2019-03-12T00:09:58.714Z,5.87
2019-03-12T00:13:05.566Z,6.20
2019-03-12T00:16:12.621Z,4.42
2019-03-12T00:19:19.371Z,5.25
2019-03-12T00:22:26.511Z,4.87
2019-03-12T00:25:33.349Z,6.47
2019-03-12T00:28:40.363Z,5.45
2019-03-12T00:31:47.195Z,6.60
2019-03-12T00:34:54.116Z,4.62
2019-03-12T00:38:00.967Z,6.70
2019-03-12T00:41:07.744Z,5.50
2019-03-12T00:44:14.960Z,4.15
2019-03-12T00:47:21.859Z,7.22
2019-03-12T00:50:31.039Z,5.70
2019-03-12T00:53:37.709Z,6.03
2019-03-12T00:56:44.564Z,7.42
2019-03-12T00:59:52.549Z,7.83
2019-03-12T01:02:59.343Z,7.20
2019-03-12T01:06:06.333Z,6.42
2019-03-12T01:09:13.196Z,7.95
2019-03-12T01:12:20.159Z,8.73
2019-03-12T01:15:30.036Z,7.33
2019-03-12T01:18:36.970Z,6.47
2019-03-12T01:21:44.744Z,6.50
2019-03-12T01:24:51.560Z,6.45
2019-03-12T01:27:58.466Z,5.55
2019-03-12T01:31:05.607Z,9.28
2019-03-12T01:34:12.529Z,8.90
2019-03-12T01:37:20.536Z,9.23
2019-03-12T01:40:30.134Z,7.92
2019-03-12T01:43:36.990Z,7.40
2019-03-12T01:46:44.306Z,7.55
2019-03-12T01:49:51.169Z,8.73
2019-03-12T01:52:58.015Z,11.53
2019-03-12T01:56:04.870Z,6.40
2019-03-12T01:59:11.698Z,5.90
2019-03-12T02:02:20.521Z,7.30
2019-03-12T02:05:29.397Z,7.37
2019-03-12T02:08:36.457Z,8.25
2019-03-12T02:11:43.356Z,9.15
2019-03-12T02:14:50.216Z,10.85
2019-03-12T02:17:57.082Z,9.23
2019-03-12T02:21:03.931Z,6.70
2019-03-12T02:24:11.835Z,10.18
2019-03-12T02:27:18.855Z,9.38
2019-03-12T02:30:27.421Z,10.28
2019-03-12T02:33:37.375Z,10.28
2019-03-12T02:36:44.415Z,5.60
2019-03-12T02:39:51.339Z,6.65
2019-03-12T02:42:59.256Z,5.33
2019-03-12T02:46:08.519Z,5.75
2019-03-12T02:49:15.832Z,5.45
2019-03-12T02:52:23.717Z,6.47
2019-03-12T02:55:30.599Z,7.00
2019-03-12T02:58:37.390Z,7.03
2019-03-12T03:01:45.221Z,6.30
2019-03-12T03:04:54.229Z,6.10
2019-03-12T03:08:06.547Z,6.10
2019-03-12T03:11:13.336Z,5.17
2019-03-12T03:14:41.714Z,5.95
2019-03-12T03:17:48.563Z,5.85
2019-03-12T03:20:56.358Z,5.37
2019-03-12T03:24:03.360Z,6.45
2019-03-12T03:27:10.201Z,6.25
2019-03-12T03:30:21.118Z,4.35
2019-03-12T03:33:31.124Z,5.70
2019-03-12T03:36:37.080Z,8.45
2019-03-12T03:39:43.914Z,4.03
2019-03-12T03:42:52.514Z,5.40
2019-03-12T03:45:59.347Z,5.80
2019-03-12T03:49:06.314Z,7.65
2019-03-12T03:52:13.664Z,5.22
2019-03-12T03:55:20.609Z,6.30
2019-03-12T03:58:30.331Z,6.53
2019-03-12T04:01:39.880Z,7.60
2019-03-12T04:04:46.712Z,4.30
2019-03-12T04:07:53.597Z,5.12
2019-03-12T04:11:00.586Z,5.50
2019-03-12T04:14:07.370Z,4.20
2019-03-12T04:17:14.322Z,5.12
2019-03-12T04:20:21.327Z,6.00
2019-03-12T04:23:29.810Z,6.83
2019-03-12T04:26:38.529Z,5.15
2019-03-12T04:29:45.369Z,5.22
2019-03-12T04:32:52.454Z,6.62
2019-03-12T04:35:59.228Z,6.08
2019-03-12T04:39:07.742Z,6.33
2019-03-12T04:42:16.182Z,5.25
2019-03-12T04:45:25.678Z,6.50
2019-03-12T04:48:37.281Z,6.12
2019-03-12T04:51:44.165Z,7.05
2019-03-12T04:54:51.423Z,5.85
2019-03-12T04:57:59.384Z,5.90
2019-03-12T05:01:06.163Z,6.90
2019-03-12T05:04:13.197Z,6.05
2019-03-12T05:07:20.037Z,5.45
2019-03-12T05:10:26.951Z,8.18
2019-03-12T05:13:33.857Z,4.92
2019-03-12T05:16:40.596Z,5.55
2019-03-12T05:19:47.847Z,6.45
2019-03-12T05:22:54.924Z,5.70
2019-03-12T05:26:01.748Z,7.40
2019-03-12T05:29:10.835Z,5.50
2019-03-12T05:32:17.380Z,7.40
2019-03-12T05:35:28.355Z,4.87
2019-03-12T05:38:35.169Z,6.80
2019-03-12T05:41:44.750Z,4.97
2019-03-12T05:44:51.492Z,4.58
2019-03-12T05:47:59.486Z,5.75
2019-03-12T05:51:06.320Z,5.00
2019-03-12T05:54:13.173Z,4.35
2019-03-12T05:57:20.282Z,4.85
2019-03-12T06:00:29.919Z,3.95
2019-03-12T06:03:36.772Z,4.85
2019-03-12T06:06:43.566Z,5.72
2019-03-12T06:09:50.417Z,5.42
2019-03-12T06:12:57.289Z,3.25
2019-03-12T06:16:04.435Z,3.35
2019-03-12T06:19:11.311Z,4.42
2019-03-12T06:22:20.394Z,4.45
2019-03-12T06:25:30.641Z,5.42
2019-03-12T06:28:37.498Z,6.85
2019-03-12T06:32:02.103Z,5.67
2019-03-12T06:35:16.473Z,4.75
2019-03-12T06:38:33.251Z,3.62
2019-03-12T06:41:56.149Z,4.92
2019-03-12T06:45:23.022Z,7.15
2019-03-12T06:48:45.675Z,3.35
2019-03-12T06:52:29.868Z,7.15
2019-03-12T06:55:54.073Z,3.30
2019-03-12T06:59:18.804Z,4.25
2019-03-12T07:02:50.656Z,5.10
2019-03-12T07:06:13.881Z,3.62
2019-03-12T07:09:48.817Z,4.28
2019-03-12T07:13:04.949Z,4.25
2019-03-12T07:16:33.263Z,5.12
2019-03-12T07:20:13.330Z,5.47
2019-03-12T07:23:35.265Z,4.55
2019-03-12T07:27:01.528Z,3.90
2019-03-12T07:30:31.540Z,3.42
2019-03-12T07:33:51.742Z,5.47
2019-03-12T07:37:20.499Z,3.42
2019-03-12T07:40:55.757Z,6.55
2019-03-12T07:44:30.509Z,3.27
2019-03-12T07:47:56.266Z,3.22
2019-03-12T07:51:28.055Z,3.20
2019-03-12T07:54:50.877Z,3.85
2019-03-12T07:58:15.562Z,3.72
2019-03-12T08:01:56.646Z,3.40
2019-03-12T08:05:10.377Z,3.65
2019-03-12T08:08:42.467Z,5.45
2019-03-12T08:11:53.994Z,5.80
2019-03-12T08:15:22.609Z,3.40
2019-03-12T08:18:26.549Z,3.37
2019-03-12T08:21:41.658Z,3.40
2019-03-12T08:25:02.542Z,3.27
2019-03-12T08:28:25.236Z,3.00
2019-03-12T08:31:54.033Z,3.47
2019-03-12T08:35:09.653Z,3.95
2019-03-12T08:38:25.967Z,2.95
2019-03-12T08:41:41.256Z,4.22
2019-03-12T08:45:05.994Z,4.47
2019-03-12T08:48:34.760Z,4.25
2019-03-12T08:51:58.527Z,4.20
2019-03-12T08:55:30.519Z,4.12
2019-03-12T08:58:49.511Z,3.87
2019-03-12T09:02:21.779Z,3.60
2019-03-12T09:05:45.712Z,3.50
2019-03-12T09:09:10.443Z,6.33
2019-03-12T09:12:36.169Z,3.80
2019-03-12T09:15:55.952Z,5.50
2019-03-12T09:19:21.716Z,4.87
2019-03-12T09:22:49.130Z,3.62
2019-03-12T09:26:11.986Z,4.10
2019-03-12T09:29:27.119Z,5.35
2019-03-12T09:32:52.884Z,4.33
2019-03-12T09:36:29.153Z,3.42
2019-03-12T09:39:54.053Z,4.80
2019-03-12T09:43:10.806Z,4.65
2019-03-12T09:46:36.519Z,3.95
2019-03-12T09:50:07.393Z,3.67
2019-03-12T09:53:20.165Z,3.55
2019-03-12T09:56:44.535Z,3.70
2019-03-12T10:00:15.571Z,4.47
2019-03-12T10:03:33.105Z,3.67
2019-03-12T10:07:01.689Z,3.15
2019-03-12T10:10:34.218Z,4.50
2019-03-12T10:13:52.564Z,5.37
2019-03-12T10:17:21.376Z,4.75
2019-03-12T10:20:44.939Z,4.25
2019-03-12T10:23:57.904Z,4.80
2019-03-12T10:27:14.785Z,4.75
2019-03-12T10:30:43.567Z,4.17
2019-03-12T10:34:30.006Z,3.85
2019-03-12T10:37:48.074Z,3.25
2019-03-12T10:41:02.191Z,4.87
2019-03-12T10:44:23.207Z,3.83
2019-03-12T10:47:30.803Z,3.37
2019-03-12T10:50:37.743Z,2.92
2019-03-12T10:53:44.573Z,2.75
2019-03-12T10:56:51.760Z,3.15
2019-03-12T10:59:58.703Z,3.25
2019-03-12T11:03:05.621Z,4.17
2019-03-12T11:06:12.879Z,3.25
2019-03-12T11:09:19.901Z,5.10
2019-03-12T11:12:26.734Z,2.72
2019-03-12T11:15:33.586Z,7.17
2019-03-12T11:18:40.328Z,2.75
2019-03-12T11:21:47.159Z,3.20
2019-03-12T11:24:54.057Z,3.50
2019-03-12T11:28:00.988Z,4.05
2019-03-12T11:31:08.907Z,2.62
2019-03-12T11:34:17.151Z,4.42
2019-03-12T11:37:24.108Z,4.17
2019-03-12T11:40:32.499Z,2.80
2019-03-12T11:43:39.485Z,2.55
2019-03-12T11:46:46.534Z,2.75
2019-03-12T11:49:53.546Z,2.85
2019-03-12T11:53:00.966Z,2.95
2019-03-12T11:56:09.211Z,2.67
2019-03-12T11:59:16.066Z,2.60
2019-03-12T12:02:23.630Z,3.30
2019-03-12T12:05:30.632Z,3.47
2019-03-12T12:08:37.913Z,3.98
2019-03-12T12:11:44.743Z,3.12
2019-03-12T12:14:54.530Z,3.75
2019-03-12T12:18:02.479Z,2.95
2019-03-12T12:21:09.314Z,3.40
2019-03-12T12:24:19.213Z,3.30
2019-03-12T12:27:28.909Z,5.00
2019-03-12T12:30:35.900Z,4.40
2019-03-12T12:33:42.791Z,3.45
2019-03-12T12:36:52.850Z,2.67
2019-03-12T12:40:02.292Z,3.20
2019-03-12T12:43:09.320Z,3.72
2019-03-12T12:46:16.681Z,2.80
2019-03-12T12:49:23.842Z,3.20
2019-03-12T12:52:30.621Z,2.98
2019-03-12T12:55:37.401Z,2.85
2019-03-12T12:58:46.969Z,3.75
2019-03-12T13:01:53.999Z,3.25
2019-03-12T13:05:00.842Z,4.30
2019-03-12T13:08:07.970Z,3.15
2019-03-12T13:11:15.733Z,3.58
2019-03-12T13:14:22.666Z,4.80
2019-03-12T13:17:29.497Z,2.92
2019-03-12T13:20:36.349Z,2.98
2019-03-12T13:23:44.309Z,4.05
2019-03-12T13:26:53.541Z,3.05
2019-03-12T13:30:00.317Z,3.33
2019-03-12T13:33:07.192Z,2.95
2019-03-12T13:36:16.946Z,2.80
2019-03-12T13:39:25.534Z,3.55
2019-03-12T13:42:32.454Z,3.00
2019-03-12T13:45:39.583Z,3.22
2019-03-12T13:48:46.435Z,3.40
2019-03-12T13:51:55.947Z,3.77
2019-03-12T13:55:03.724Z,2.45
2019-03-12T13:58:11.617Z,3.25
2019-03-12T14:01:24.203Z,2.85
2019-03-12T14:04:32.216Z,2.17
2019-03-12T14:07:39.109Z,3.08
2019-03-12T14:10:45.999Z,3.30
2019-03-12T14:13:53.964Z,2.55
2019-03-12T14:17:00.810Z,2.87
2019-03-12T14:20:48.087Z,3.42
2019-03-12T14:24:03.493Z,3.33
2019-03-12T14:27:11.897Z,2.33
2019-03-12T14:30:21.150Z,3.10
2019-03-12T14:33:29.202Z,2.42
2019-03-12T14:36:36.314Z,2.67
2019-03-12T14:39:43.192Z,2.83
2019-03-12T14:42:50.063Z,2.77
2019-03-12T14:45:57.116Z,2.77
2019-03-12T14:49:09.721Z,2.87
2019-03-12T14:52:29.300Z,2.80
2019-03-12T14:55:36.185Z,2.80
2019-03-12T14:58:43.153Z,3.20
2019-03-12T15:01:50.029Z,3.35
2019-03-12T15:04:56.883Z,3.85
2019-03-12T15:08:03.830Z,2.75
2019-03-12T15:11:10.624Z,3.15
2019-03-12T15:14:23.023Z,2.45
2019-03-12T15:17:29.768Z,2.12
2019-03-12T15:20:36.648Z,3.85
2019-03-12T15:23:44.648Z,3.80
2019-03-12T15:26:51.432Z,3.00
2019-03-12T15:29:58.393Z,3.15
2019-03-12T15:33:05.291Z,2.80
2019-03-12T15:36:12.296Z,4.67
2019-03-12T15:39:22.342Z,3.83
2019-03-12T15:42:30.051Z,3.15
2019-03-12T15:45:47.509Z,3.70
2019-03-12T15:48:57.423Z,2.40
2019-03-12T15:52:04.422Z,2.70
2019-03-12T15:55:12.933Z,3.25
2019-03-12T15:58:20.919Z,3.40
2019-03-12T16:01:27.695Z,2.85
2019-03-12T16:04:36.579Z,3.52
2019-03-12T16:07:43.331Z,2.90
2019-03-12T16:10:57.963Z,3.02
2019-03-12T16:13:58.718Z,3.12
2019-03-12T16:17:05.838Z,2.60
2019-03-12T16:20:13.651Z,3.17
2019-03-12T16:23:21.722Z,3.42
2019-03-12T16:26:28.538Z,3.00
2019-03-12T16:29:36.435Z,4.05
2019-03-12T16:32:45.357Z,3.42
2019-03-12T16:35:52.478Z,2.45
2019-03-12T16:39:00.206Z,2.75
2019-03-12T16:42:07.852Z,3.00
2019-03-12T16:45:14.979Z,4.17
2019-03-12T16:48:22.224Z,3.67
2019-03-12T16:51:29.086Z,3.50
2019-03-12T16:54:38.331Z,6.37
2019-03-12T16:57:47.363Z,6.35
2019-03-12T17:00:54.268Z,5.58
2019-03-12T17:04:01.091Z,4.55
2019-03-12T17:07:07.933Z,2.90
2019-03-12T17:10:17.524Z,3.27
2019-03-12T17:13:26.991Z,3.83
2019-03-12T17:16:33.830Z,3.37
2019-03-12T17:19:41.152Z,3.77
2019-03-12T17:22:48.040Z,3.60
2019-03-12T17:25:55.013Z,3.17
2019-03-12T17:29:01.796Z,3.65
2019-03-12T17:32:08.757Z,2.83
2019-03-12T17:35:18.918Z,4.03
2019-03-12T17:38:45.871Z,2.40
2019-03-12T17:41:41.664Z,3.22
2019-03-12T17:44:48.542Z,3.67
2019-03-12T17:47:55.382Z,2.55
2019-03-12T17:51:02.303Z,3.45
2019-03-12T17:54:09.132Z,2.15
2019-03-12T17:57:17.309Z,2.83
2019-03-12T18:00:28.315Z,5.08
2019-03-12T18:03:34.648Z,3.52
2019-03-12T18:06:41.542Z,2.60
2019-03-12T18:09:48.455Z,2.95
2019-03-12T18:12:55.304Z,2.70
2019-03-12T18:16:02.180Z,2.05
2019-03-12T18:19:09.036Z,2.62
2019-03-12T18:22:16.336Z,2.20
2019-03-12T18:25:26.015Z,2.47
2019-03-12T18:28:32.993Z,2.50
2019-03-12T18:31:40.494Z,2.92
2019-03-12T18:34:47.468Z,2.17
2019-03-12T18:38:00.594Z,4.40
2019-03-12T18:41:25.432Z,2.45
2019-03-12T18:44:38.117Z,2.85
2019-03-12T18:47:47.157Z,2.62
2019-03-12T18:50:59.423Z,3.35
2019-03-12T18:54:14.211Z,2.50
2019-03-12T18:57:29.242Z,4.53
2019-03-12T19:00:38.466Z,2.62
2019-03-12T19:03:55.236Z,2.40
2019-03-12T19:07:03.887Z,2.50
2019-03-12T19:10:13.408Z,2.35
2019-03-12T19:13:22.802Z,3.45
2019-03-12T19:16:31.485Z,3.37
2019-03-12T19:19:42.480Z,3.22
2019-03-12T19:22:50.359Z,2.40
2019-03-12T19:25:57.722Z,3.33
2019-03-12T19:29:06.428Z,2.15
2019-03-12T19:32:19.467Z,3.35
2019-03-12T19:35:29.109Z,2.87
2019-03-12T19:38:36.027Z,3.00
2019-03-12T19:41:45.833Z,2.35
2019-03-12T19:44:53.208Z,2.02
2019-03-12T19:48:01.622Z,2.83
2019-03-12T19:51:09.681Z,2.05
2019-03-12T19:54:16.831Z,2.87
2019-03-12T19:57:23.983Z,2.12
2019-03-12T20:00:32.060Z,2.62
2019-03-12T20:03:39.009Z,2.30
2019-03-12T20:06:46.028Z,2.20
2019-03-12T20:11:01.453Z,2.35
2019-03-12T20:15:22.897Z,2.17
2019-03-12T20:19:24.472Z,2.55
2019-03-12T20:24:03.390Z,2.25
2019-03-12T20:28:12.338Z,2.50
2019-03-12T20:32:09.384Z,2.25
2019-03-12T20:36:40.898Z,1.90
2019-03-12T20:40:40.294Z,2.35
2019-03-12T20:44:58.692Z,1.82
2019-03-12T20:49:13.976Z,2.75
2019-03-12T20:53:12.554Z,2.00
2019-03-12T20:57:13.744Z,2.20
2019-03-12T21:01:27.746Z,2.05
2019-03-12T21:05:38.450Z,2.27
2019-03-12T21:09:40.433Z,2.25
2019-03-12T21:13:52.906Z,2.35
2019-03-12T21:18:10.119Z,2.12
2019-03-12T21:22:03.624Z,2.22
2019-03-12T21:26:29.030Z,2.30
2019-03-12T21:29:49.982Z,2.42
2019-03-12T21:32:57.088Z,1.80
2019-03-12T21:36:04.028Z,1.90
2019-03-12T21:39:11.071Z,2.12
2019-03-12T21:42:19.513Z,1.92
2019-03-12T21:45:26.598Z,2.58
2019-03-12T21:48:33.526Z,2.02
2019-03-12T21:51:40.323Z,1.72
2019-03-12T21:54:47.170Z,2.10
2019-03-12T21:57:54.213Z,1.92
2019-03-12T22:01:02.108Z,1.90
2019-03-12T22:04:14.046Z,2.00
2019-03-12T22:07:20.848Z,2.15
2019-03-12T22:10:27.809Z,4.08
2019-03-12T22:13:34.668Z,2.55
2019-03-12T22:16:42.430Z,1.65
2019-03-12T22:19:49.539Z,3.12
2019-03-12T22:23:09.978Z,1.85
2019-03-12T22:26:20.110Z,2.80
2019-03-12T22:29:27.993Z,1.70
2019-03-12T22:32:34.932Z,2.20
2019-03-12T22:35:41.863Z,2.22
2019-03-12T22:38:48.775Z,1.70
2019-03-12T22:41:56.800Z,2.60
2019-03-12T22:45:04.741Z,1.75
2019-03-12T22:48:11.970Z,2.20
2019-03-12T22:51:18.751Z,2.30
2019-03-12T22:54:25.544Z,1.70
2019-03-12T22:57:32.310Z,2.20
2019-03-12T23:00:58.254Z,1.85
2019-03-12T23:04:23.357Z,2.02
2019-03-12T23:07:48.679Z,2.45
2019-03-12T23:10:57.385Z,2.80
2019-03-12T23:14:04.297Z,1.60
2019-03-12T23:17:12.282Z,2.10
2019-03-12T23:20:21.569Z,1.50
2019-03-12T23:23:28.677Z,1.75
2019-03-12T23:26:35.851Z,1.90
2019-03-12T23:29:48.623Z,1.95
2019-03-12T23:32:55.856Z,2.35
2019-03-12T23:36:02.791Z,1.90
2019-03-12T23:39:10.294Z,2.12
2019-03-12T23:42:17.115Z,1.98
2019-03-12T23:45:24.935Z,1.50
2019-03-12T23:48:31.783Z,1.80
2019-03-12T23:51:39.974Z,2.08
2019-03-12T23:54:50.449Z,1.65
2019-03-12T23:57:57.378Z,2.47
